Time;durP1;ratioP1;P1;durP2;ratioP2;P2;SDS_P1;SDS_P2;PMS_P1;PMS_P2;Temp;Humidity;BMP_temperature;BMP_pressure;BME280_temperature;BME280_humidity;BME280_pressure;Samples;Min_cycle;Max_cycle;Signal;HPM_P1;HPM_P2
2023/02/13 00:01:57;;;;;;;5.37;3.43;;;0.70;99.90;;;;;;5055963;28;20215;-84
2023/02/13 00:04:23;;;;;;;8.10;4.77;;;0.70;99.90;;;;;;5055136;28;20633;-85
2023/02/13 00:06:48;;;;;;;17.53;5.13;;;0.80;99.90;;;;;;5037775;28;20524;-84
2023/02/13 00:09:14;;;;;;;11.67;5.73;;;0.80;99.90;;;;;;5055075;28;20183;-84
2023/02/13 00:11:40;;;;;;;7.03;5.47;;;0.80;99.90;;;;;;5055065;28;20188;-84
2023/02/13 00:14:06;;;;;;;10.87;5.27;;;0.70;99.90;;;;;;5053904;28;20180;-83
2023/02/13 00:16:32;;;;;;;9.60;4.87;;;0.70;99.90;;;;;;5054931;28;20180;-84
2023/02/13 00:18:58;;;;;;;16.33;5.67;;;0.70;99.90;;;;;;5054948;28;20208;-84
2023/02/13 00:21:24;;;;;;;11.13;4.90;;;0.70;99.90;;;;;;5049060;28;20632;-84
2023/02/13 00:23:49;;;;;;;11.90;5.00;;;0.70;99.90;;;;;;5053814;28;20241;-84
2023/02/13 00:26:16;;;;;;;6.97;3.67;;;0.80;99.90;;;;;;5053395;28;20563;-84
2023/02/13 00:28:42;;;;;;;8.87;4.33;;;0.80;99.90;;;;;;5051398;28;20706;-83
2023/02/13 00:31:10;;;;;;;18.40;5.53;;;0.70;99.90;;;;;;5054003;28;20187;-84
2023/02/13 00:33:37;;;;;;;10.03;3.77;;;0.70;99.90;;;;;;5053349;28;20176;-84
2023/02/13 00:36:08;;;;;;;9.67;4.70;;;0.70;99.90;;;;;;5055045;28;20176;-83
2023/02/13 00:38:35;;;;;;;6.90;4.10;;;0.80;99.90;;;;;;5042724;28;20196;-84
2023/02/13 00:41:01;;;;;;;7.13;4.57;;;0.80;99.90;;;;;;5017079;28;20235;-83
2023/02/13 00:43:27;;;;;;;6.60;5.07;;;0.80;99.90;;;;;;5034690;28;20645;-85
2023/02/13 00:45:52;;;;;;;7.10;4.23;;;0.80;99.90;;;;;;5033335;28;20183;-84
2023/02/13 00:48:18;;;;;;;11.50;6.00;;;0.80;99.90;;;;;;5029095;28;20279;-83
2023/02/13 00:50:46;;;;;;;9.77;5.67;;;0.80;99.90;;;;;;5034351;28;20225;-83
2023/02/13 00:53:12;;;;;;;8.60;4.73;;;0.90;99.90;;;;;;5033592;28;20278;-83
2023/02/13 00:55:38;;;;;;;11.30;5.17;;;0.90;99.90;;;;;;5033327;28;20187;-84
2023/02/13 00:58:03;;;;;;;13.27;6.73;;;1.00;99.90;;;;;;5016803;28;20176;-84
2023/02/13 01:00:30;;;;;;;6.47;5.03;;;1.00;99.90;;;;;;5033101;28;20190;-85
2023/02/13 01:02:56;;;;;;;10.67;5.63;;;1.00;99.90;;;;;;5053127;28;20211;-83
2023/02/13 01:05:21;;;;;;;9.57;6.00;;;1.10;99.90;;;;;;5053289;28;20236;-84
2023/02/13 01:07:47;;;;;;;9.20;5.77;;;1.10;99.90;;;;;;5052585;28;20187;-84
2023/02/13 01:10:13;;;;;;;11.70;5.80;;;1.10;99.90;;;;;;5054215;28;20187;-84
2023/02/13 01:12:38;;;;;;;9.57;6.37;;;1.10;99.90;;;;;;5052731;28;20208;-85
2023/02/13 01:15:05;;;;;;;12.83;4.37;;;1.10;99.90;;;;;;5053843;28;20695;-84
2023/02/13 01:17:31;;;;;;;10.43;6.87;;;1.10;99.90;;;;;;5052803;28;20184;-85
2023/02/13 01:19:56;;;;;;;7.97;5.77;;;1.10;99.90;;;;;;5036203;28;20544;-84
2023/02/13 01:22:22;;;;;;;12.17;6.23;;;1.20;99.90;;;;;;5052612;28;20572;-84
2023/02/13 01:24:48;;;;;;;9.67;4.73;;;1.10;99.90;;;;;;5053204;28;20181;-84
2023/02/13 01:27:13;;;;;;;9.10;4.87;;;1.20;99.90;;;;;;5053762;28;20178;-84
2023/02/13 01:29:39;;;;;;;6.13;4.03;;;1.10;99.90;;;;;;5035996;28;20299;-84
2023/02/13 01:32:04;;;;;;;6.40;4.87;;;1.10;99.90;;;;;;5019682;28;20728;-85
2023/02/13 01:34:32;;;;;;;8.17;5.73;;;1.10;99.90;;;;;;5053997;28;20171;-84
2023/02/13 01:36:58;;;;;;;8.43;5.13;;;1.10;99.90;;;;;;5043254;28;20231;-84
2023/02/13 01:39:24;;;;;;;9.50;6.30;;;1.00;99.90;;;;;;5033730;28;20620;-84
2023/02/13 01:41:50;;;;;;;11.67;5.17;;;1.10;99.90;;;;;;4999582;28;20277;-84
2023/02/13 01:44:48;;;;;;;7.33;4.53;;;1.20;99.90;;;;;;5032349;28;20217;-84
2023/02/13 01:47:21;;;;;;;12.63;6.03;;;1.10;99.90;;;;;;5032402;28;20172;-84
2023/02/13 01:49:48;;;;;;;6.57;3.63;;;1.10;99.90;;;;;;5032131;28;20535;-84
2023/02/13 01:52:15;;;;;;;10.60;5.47;;;1.10;99.90;;;;;;5034033;28;20261;-84
2023/02/13 01:54:41;;;;;;;7.07;4.67;;;1.10;99.90;;;;;;5033272;28;20271;-84
2023/02/13 01:57:10;;;;;;;12.90;6.80;;;1.10;99.90;;;;;;5032111;28;20184;-84
2023/02/13 02:00:06;;;;;;;15.87;5.43;;;1.10;99.90;;;;;;5033176;28;20223;-84
2023/02/13 02:02:36;;;;;;;10.30;4.33;;;1.10;99.90;;;;;;5032031;28;20247;-84
2023/02/13 02:05:04;;;;;;;15.23;5.37;;;1.10;99.90;;;;;;5033686;28;20157;-84
2023/02/13 02:07:31;;;;;;;15.20;5.30;;;1.10;99.90;;;;;;5032008;28;20182;-84
2023/02/13 02:10:06;;;;;;;10.87;5.37;;;1.20;99.90;;;;;;5031890;28;20542;-83
2023/02/13 02:12:43;;;;;;;10.13;6.77;;;1.10;99.90;;;;;;5032960;28;20165;-84
2023/02/13 02:15:09;;;;;;;6.87;4.73;;;1.20;99.90;;;;;;5033349;28;20176;-84
2023/02/13 02:17:35;;;;;;;10.87;5.83;;;1.20;99.90;;;;;;5033422;28;20199;-84
2023/02/13 02:20:17;;;;;;;9.83;4.63;;;1.10;99.90;;;;;;5032954;28;20201;-84
2023/02/13 02:23:13;;;;;;;9.77;5.07;;;1.10;99.90;;;;;;5032764;28;20206;-84
2023/02/13 02:26:00;;;;;;;8.63;5.40;;;1.10;99.90;;;;;;5033093;28;20229;-83
2023/02/13 02:28:45;;;;;;;6.07;3.70;;;1.10;99.90;;;;;;5033637;28;20169;-83
2023/02/13 02:31:26;;;;;;;8.00;4.53;;;1.20;99.90;;;;;;5033336;28;20169;-83
2023/02/13 02:33:52;;;;;;;11.10;3.97;;;1.20;99.90;;;;;;5032940;28;20189;-84
2023/02/13 02:36:33;;;;;;;6.50;4.60;;;1.20;99.90;;;;;;5031752;28;20204;-84
2023/02/13 02:39:23;;;;;;;11.07;4.33;;;1.20;99.90;;;;;;5031715;28;20192;-83
2023/02/13 02:42:02;;;;;;;3.47;3.17;;;1.20;99.90;;;;;;5032751;28;20204;-84
2023/02/13 02:44:42;;;;;;;8.73;4.93;;;1.20;99.90;;;;;;5033271;28;20196;-83
2023/02/13 02:50:14;;;;;;;13.30;5.07;;;1.10;99.90;;;;;;5032814;28;20172;-83
2023/02/13 02:53:08;;;;;;;10.67;4.67;;;1.30;99.90;;;;;;5022252;28;20218;-83
2023/02/13 02:55:53;;;;;;;24.07;5.67;;;1.30;99.90;;;;;;4994609;28;20604;-83
2023/02/13 03:25:17;;;;;;;8.73;4.00;;;1.40;99.90;;;;;;5270861;22;20646;-83
2023/02/13 03:30:54;;;;;;;7.07;5.37;;;1.40;99.90;;;;;;5043289;28;20564;-83
2023/02/13 03:33:42;;;;;;;8.63;3.70;;;1.40;99.90;;;;;;5018385;28;20189;-86
2023/02/13 03:40:06;;;;;;;6.33;4.50;;;1.50;99.90;;;;;;4999620;28;20196;-84
2023/02/13 03:42:45;;;;;;;15.43;5.17;;;1.60;99.90;;;;;;5017671;28;20207;-83
2023/02/13 03:50:04;;;;;;;7.40;5.83;;;1.60;99.90;;;;;;5044370;28;20196;-83
2023/02/13 03:50:52;;;;;;;14.33;4.73;;;1.60;99.90;;;;;;5035317;28;20628;-83
2023/02/13 03:53:18;;;;;;;7.20;4.17;;;1.60;99.90;;;;;;5035448;28;20188;-83
2023/02/13 04:01:31;;;;;;;10.00;3.83;;;1.90;99.90;;;;;;5034010;28;20635;-83
2023/02/13 04:04:21;;;;;;;11.23;4.70;;;1.90;99.90;;;;;;5034583;28;20177;-83
2023/02/13 04:06:59;;;;;;;8.30;4.57;;;1.90;99.90;;;;;;5034444;28;20184;-83
2023/02/13 04:09:27;;;;;;;6.70;4.60;;;2.00;99.90;;;;;;5017634;28;20172;-85
2023/02/13 04:12:10;;;;;;;6.47;3.67;;;2.10;99.90;;;;;;5035203;28;20173;-83
2023/02/13 04:14:42;;;;;;;15.70;6.03;;;2.10;99.90;;;;;;5035077;28;20170;-83
2023/02/13 04:17:14;;;;;;;7.33;4.20;;;2.10;99.90;;;;;;5017751;28;20644;-83
2023/02/13 04:19:40;;;;;;;4.50;3.30;;;2.10;99.90;;;;;;5034398;28;20614;-83
2023/02/13 04:22:06;;;;;;;8.40;3.23;;;2.10;99.90;;;;;;5017015;28;20223;-83
2023/02/13 04:24:32;;;;;;;7.47;3.43;;;2.20;99.90;;;;;;5000079;28;20327;-84
2023/02/13 04:26:58;;;;;;;8.37;3.87;;;2.20;99.90;;;;;;5016585;28;20178;-84
2023/02/13 04:29:25;;;;;;;9.57;4.37;;;2.30;99.90;;;;;;5033926;28;20633;-84
2023/02/13 04:31:51;;;;;;;7.60;4.37;;;2.30;99.90;;;;;;5034216;28;20200;-84
2023/02/13 04:34:17;;;;;;;9.63;4.93;;;2.20;99.90;;;;;;5034227;28;20203;-85
2023/02/13 04:36:42;;;;;;;5.27;3.27;;;2.30;99.90;;;;;;5017930;28;20709;-84
2023/02/13 04:39:10;;;;;;;7.00;3.17;;;2.30;99.90;;;;;;5022344;28;20527;-84
2023/02/13 04:41:35;;;;;;;7.17;3.53;;;2.30;99.90;;;;;;5033522;28;20235;-84
2023/02/13 04:44:01;;;;;;;5.87;3.60;;;2.40;99.90;;;;;;5019265;28;20218;-83
2023/02/13 04:46:26;;;;;;;15.00;5.77;;;2.40;99.90;;;;;;5019137;28;20242;-84
2023/02/13 04:48:52;;;;;;;14.37;3.83;;;2.40;99.90;;;;;;5035495;28;20180;-83
2023/02/13 04:51:18;;;;;;;6.23;2.13;;;2.40;99.90;;;;;;5035339;28;20193;-84
2023/02/13 04:53:43;;;;;;;7.57;3.80;;;2.40;99.90;;;;;;5034260;28;20195;-84
2023/02/13 04:56:09;;;;;;;9.97;3.60;;;2.40;99.90;;;;;;5018929;28;20197;-82
2023/02/13 04:58:34;;;;;;;15.93;5.80;;;2.40;99.90;;;;;;5053279;28;20187;-85
2023/02/13 05:01:00;;;;;;;14.93;5.20;;;2.40;99.90;;;;;;5053443;28;20201;-84
2023/02/13 05:03:26;;;;;;;7.13;3.67;;;2.50;99.90;;;;;;5027372;28;20221;-84
2023/02/13 05:05:51;;;;;;;9.23;3.50;;;2.50;99.90;;;;;;5035398;28;20287;-84
2023/02/13 05:08:17;;;;;;;5.90;3.90;;;2.50;99.90;;;;;;5036236;28;20184;-83
2023/02/13 05:10:43;;;;;;;11.73;5.23;;;2.50;99.90;;;;;;5047217;28;20636;-83
2023/02/13 05:13:08;;;;;;;8.07;3.80;;;2.50;99.90;;;;;;5014097;28;20207;-84
2023/02/13 05:15:34;;;;;;;7.33;4.20;;;2.50;99.90;;;;;;5016094;28;20185;-85
2023/02/13 05:18:00;;;;;;;10.47;4.73;;;2.50;99.90;;;;;;5029060;28;20274;-84
2023/02/13 05:20:25;;;;;;;9.07;4.80;;;2.50;99.90;;;;;;5035519;28;20661;-83
2023/02/13 05:25:38;;;;;;;9.83;4.00;;;2.50;99.90;;;;;;5033277;28;20246;-84
2023/02/13 05:29:17;;;;;;;8.20;4.87;;;2.50;99.90;;;;;;5034298;28;20191;-83
2023/02/13 05:30:50;;;;;;;10.03;4.53;;;2.50;99.90;;;;;;5034405;28;20637;-83
2023/02/13 05:33:16;;;;;;;8.23;4.17;;;2.50;99.90;;;;;;5035856;28;20189;-83
2023/02/13 05:35:42;;;;;;;8.83;5.13;;;2.50;99.90;;;;;;5035387;28;20179;-83
2023/02/13 05:38:07;;;;;;;7.20;4.50;;;2.50;99.90;;;;;;5053304;28;20245;-83
2023/02/13 05:40:33;;;;;;;8.00;4.47;;;2.60;99.90;;;;;;5035828;28;20187;-84
2023/02/13 05:42:58;;;;;;;14.33;5.90;;;2.60;99.90;;;;;;5035063;28;20285;-84
2023/02/13 05:45:24;;;;;;;17.23;5.97;;;2.60;99.90;;;;;;5019188;28;20206;-84
2023/02/13 05:47:50;;;;;;;15.27;6.77;;;2.60;99.90;;;;;;5034499;28;20187;-84
2023/02/13 05:50:16;;;;;;;8.17;4.20;;;2.60;99.90;;;;;;5006067;28;20660;-83
2023/02/13 05:52:41;;;;;;;9.07;4.93;;;2.60;99.90;;;;;;4982464;28;20555;-84
2023/02/13 05:55:07;;;;;;;11.47;4.77;;;2.60;99.90;;;;;;4999106;28;20234;-84
2023/02/13 05:57:33;;;;;;;10.37;4.60;;;2.60;99.90;;;;;;5015507;28;20275;-83
2023/02/13 05:59:58;;;;;;;11.67;4.07;;;2.50;99.90;;;;;;5032427;28;21061;-85
2023/02/13 06:02:24;;;;;;;10.40;4.93;;;2.60;99.90;;;;;;5032650;28;20211;-83
2023/02/13 06:04:50;;;;;;;8.50;5.37;;;2.60;99.90;;;;;;4998327;28;20191;-82
2023/02/13 06:07:16;;;;;;;9.07;4.23;;;2.60;99.90;;;;;;5012085;28;20192;-83
2023/02/13 06:09:41;;;;;;;4.80;3.33;;;2.60;99.90;;;;;;5007258;28;20191;-82
2023/02/13 06:12:07;;;;;;;8.97;4.90;;;2.70;99.90;;;;;;5026663;28;20309;-82
2023/02/13 06:14:32;;;;;;;9.03;5.10;;;2.60;99.90;;;;;;5034847;28;20332;-85
2023/02/13 06:17:00;;;;;;;15.10;5.87;;;2.70;99.90;;;;;;5050656;28;20193;-83
2023/02/13 06:19:25;;;;;;;9.60;5.27;;;2.70;99.90;;;;;;5018414;28;20193;-82
2023/02/13 06:21:51;;;;;;;7.80;4.70;;;2.70;99.90;;;;;;5012086;28;20208;-82
2023/02/13 06:24:17;;;;;;;10.03;3.23;;;2.70;99.90;;;;;;5035264;28;20615;-82
2023/02/13 06:26:42;;;;;;;16.90;5.07;;;2.70;99.90;;;;;;5014371;28;20192;-85
2023/02/13 06:29:08;;;;;;;10.87;5.00;;;2.80;99.90;;;;;;5014572;28;20184;-82
2023/02/13 06:31:34;;;;;;;8.73;5.03;;;2.90;99.90;;;;;;5014551;28;20680;-83
2023/02/13 06:34:00;;;;;;;7.53;4.13;;;2.80;99.90;;;;;;5032098;28;20187;-83
2023/02/13 06:36:25;;;;;;;8.60;4.03;;;2.80;99.90;;;;;;5014683;28;20709;-83
2023/02/13 06:38:51;;;;;;;11.50;5.47;;;2.90;99.90;;;;;;5018008;28;20188;-82
2023/02/13 06:41:17;;;;;;;11.50;5.37;;;2.90;99.90;;;;;;5034459;28;20235;-82
2023/02/13 06:43:43;;;;;;;12.97;5.60;;;2.90;99.90;;;;;;5052133;28;20242;-83
2023/02/13 06:46:09;;;;;;;12.17;4.83;;;3.00;99.90;;;;;;5034135;28;20628;-83
2023/02/13 06:48:35;;;;;;;7.57;5.37;;;3.00;99.90;;;;;;5034111;28;20285;-83
2023/02/13 06:51:01;;;;;;;4.80;2.80;;;3.00;99.90;;;;;;5033932;28;20550;-83
2023/02/13 06:53:27;;;;;;;9.27;4.27;;;3.00;99.90;;;;;;5052144;28;20385;-84
2023/02/13 06:55:54;;;;;;;13.67;4.17;;;3.10;99.90;;;;;;5027574;28;20235;-83
2023/02/13 06:58:21;;;;;;;10.23;4.47;;;3.10;99.90;;;;;;5034057;28;20215;-83
2023/02/13 07:00:47;;;;;;;7.97;4.90;;;3.20;99.90;;;;;;5017939;28;20184;-85
2023/02/13 07:03:13;;;;;;;8.30;4.93;;;3.20;99.90;;;;;;5035875;28;20212;-83
2023/02/13 07:05:42;;;;;;;9.53;4.53;;;3.20;99.90;;;;;;5035920;28;20176;-85
2023/02/13 07:08:09;;;;;;;10.73;3.80;;;3.20;99.90;;;;;;5035940;28;20179;-82
2023/02/13 07:10:41;;;;;;;14.63;5.23;;;3.20;99.90;;;;;;5035756;28;20577;-83
2023/02/13 07:13:07;;;;;;;12.80;4.60;;;3.20;99.90;;;;;;5023519;28;20270;-83
2023/02/13 07:15:34;;;;;;;6.30;4.27;;;3.20;99.90;;;;;;5019886;28;20242;-83
2023/02/13 07:18:00;;;;;;;11.57;5.90;;;3.20;99.90;;;;;;5017505;28;20183;-83
2023/02/13 07:20:27;;;;;;;9.53;5.47;;;3.20;99.90;;;;;;5035580;28;20184;-83
2023/02/13 07:22:56;;;;;;;13.40;4.87;;;3.30;99.90;;;;;;5035309;28;20208;-83
2023/02/13 07:25:21;;;;;;;8.23;4.20;;;3.30;99.90;;;;;;5036547;28;20646;-82
2023/02/13 07:27:47;;;;;;;16.30;5.07;;;3.30;99.90;;;;;;5017562;28;20186;-82
2023/02/13 07:30:13;;;;;;;7.87;5.00;;;3.30;99.90;;;;;;5017951;28;20184;-82
2023/02/13 07:32:38;;;;;;;9.70;5.60;;;3.30;99.90;;;;;;5035047;28;20637;-83
2023/02/13 07:35:04;;;;;;;14.67;4.47;;;3.40;99.90;;;;;;5035026;28;20188;-82
2023/02/13 07:37:31;;;;;;;9.30;4.90;;;3.40;99.90;;;;;;5035538;28;20236;-82
2023/02/13 07:39:57;;;;;;;8.93;4.37;;;3.40;99.90;;;;;;5034909;28;20179;-81
2023/02/13 07:42:22;;;;;;;9.30;4.53;;;3.40;99.90;;;;;;5021863;28;20199;-82
2023/02/13 07:44:48;;;;;;;8.83;4.23;;;3.40;99.90;;;;;;5044441;28;20202;-82
2023/02/13 07:47:13;;;;;;;8.97;4.83;;;3.40;99.90;;;;;;5041842;28;20558;-83
2023/02/13 07:49:39;;;;;;;14.07;4.87;;;3.50;99.90;;;;;;5035333;28;20208;-84
2023/02/13 07:52:05;;;;;;;8.87;4.57;;;3.50;99.90;;;;;;5016986;28;20191;-83
2023/02/13 07:54:31;;;;;;;7.30;4.63;;;3.50;99.90;;;;;;5035120;28;20267;-83
2023/02/13 07:56:57;;;;;;;15.53;5.97;;;3.50;99.90;;;;;;5042258;28;20215;-83
2023/02/13 07:59:23;;;;;;;18.13;6.40;;;3.50;99.90;;;;;;5019591;28;20239;-83
2023/02/13 08:01:49;;;;;;;9.20;5.97;;;3.50;99.90;;;;;;5016655;28;20681;-84
2023/02/13 08:04:14;;;;;;;10.00;5.53;;;3.50;99.90;;;;;;5034443;28;20650;-82
2023/02/13 08:06:41;;;;;;;13.60;5.33;;;3.60;99.90;;;;;;5000557;28;20239;-82
2023/02/13 08:11:54;;;;;;;14.43;6.30;;;3.70;99.90;;;;;;5042972;28;20251;-82
2023/02/13 08:14:25;;;;;;;12.70;6.63;;;3.70;99.90;;;;;;5019440;28;20195;-84
2023/02/13 08:16:52;;;;;;;11.80;6.20;;;3.70;99.90;;;;;;5054046;28;20354;-83
2023/02/13 08:19:18;;;;;;;15.97;5.63;;;;;;;;;;5035592;28;20187;-83
2023/02/13 08:21:44;;;;;;;8.73;3.50;;;;;;;;;;5025190;28;20299;-83
2023/02/13 08:24:11;;;;;;;12.20;5.07;;;4.00;99.90;;;;;;5046063;28;20180;-82
2023/02/13 08:26:37;;;;;;;11.17;5.77;;;;;;;;;;5043431;28;20186;-82
2023/02/13 08:29:04;;;;;;;11.37;4.97;;;4.10;99.90;;;;;;5045486;28;20255;-82
2023/02/13 08:31:30;;;;;;;13.67;6.10;;;;;;;;;;5028497;28;20184;-82
2023/02/13 08:33:57;;;;;;;16.70;6.10;;;;;;;;;;5044080;28;20255;-82
2023/02/13 08:36:23;;;;;;;7.30;4.90;;;;;;;;;;5045187;28;20207;-83
2023/02/13 08:38:49;;;;;;;15.93;7.20;;;;;;;;;;5013844;28;20276;-83
2023/02/13 08:41:17;;;;;;;17.17;6.67;;;;;;;;;;5045401;28;21541;-83
2023/02/13 08:43:44;;;;;;;8.87;4.37;;;;;;;;;;5032580;28;20189;-83
2023/02/13 08:46:10;;;;;;;12.50;4.50;;;;;;;;;;5028771;28;20524;-83
2023/02/13 08:48:36;;;;;;;13.93;6.43;;;;;;;;;;5042215;28;20203;-83
2023/02/13 08:51:11;;;;;;;16.70;7.03;;;4.50;99.90;;;;;;5048731;28;20184;-84
2023/02/13 08:53:37;;;;;;;9.13;4.73;;;4.60;99.90;;;;;;5047452;28;20179;-82
2023/02/13 08:56:03;;;;;;;11.17;5.70;;;;;;;;;;5034995;28;20183;-84
2023/02/13 08:58:30;;;;;;;7.17;4.67;;;;;;;;;;5030695;28;20279;-83
2023/02/13 09:00:56;;;;;;;6.50;4.50;;;4.70;99.90;;;;;;5033487;28;20181;-83
2023/02/13 09:03:22;;;;;;;16.43;5.67;;;4.70;99.90;;;;;;5015292;28;20225;-83
2023/02/13 09:05:47;;;;;;;9.70;5.03;;;4.70;99.90;;;;;;5005275;28;20185;-83
2023/02/13 09:08:14;;;;;;;11.10;4.80;;;;;;;;;;5045264;28;20582;-83
2023/02/13 09:10:42;;;;;;;7.23;3.60;;;4.80;99.90;;;;;;5034730;28;20191;-83
2023/02/13 09:13:08;;;;;;;14.57;5.67;;;4.80;99.90;;;;;;5052495;28;20619;-84
2023/02/13 09:15:39;;;;;;;5.53;3.53;;;4.80;99.90;;;;;;5035153;28;20267;-83
2023/02/13 09:18:05;;;;;;;10.33;4.30;;;;;;;;;;5053208;28;20171;-83
2023/02/13 09:20:30;;;;;;;24.10;6.50;;;4.90;99.90;;;;;;5052064;28;20233;-84
2023/02/13 09:22:56;;;;;;;9.53;4.87;;;5.00;99.90;;;;;;5052484;28;20211;-85
2023/02/13 09:25:22;;;;;;;19.43;5.90;;;;;;;;;;5018082;28;20296;-84
2023/02/13 09:27:48;;;;;;;12.60;5.33;;;5.00;99.90;;;;;;5035326;28;20219;-84
2023/02/13 09:30:21;;;;;;;6.00;4.47;;;5.10;99.90;;;;;;5018222;28;20212;-84
2023/02/13 09:32:48;;;;;;;7.97;3.50;;;;;;;;;;5035181;28;20278;-84
2023/02/13 09:35:14;;;;;;;17.70;6.07;;;;;;;;;;5048275;28;20189;-84
2023/02/13 09:37:40;;;;;;;11.63;4.20;;;5.20;99.90;;;;;;5015368;28;20212;-85
2023/02/13 09:40:25;;;;;;;11.77;4.07;;;5.20;99.90;;;;;;5015338;28;20618;-84
2023/02/13 09:42:52;;;;;;;9.23;5.37;;;5.40;99.90;;;;;;5001075;28;20216;-84
2023/02/13 09:45:20;;;;;;;15.60;6.50;;;5.40;99.90;;;;;;5032605;28;20188;-84
2023/02/13 09:47:47;;;;;;;9.50;4.63;;;5.50;99.90;;;;;;5020290;28;20172;-85
2023/02/13 09:50:18;;;;;;;9.97;5.10;;;5.50;99.90;;;;;;5034341;28;20199;-84
2023/02/13 09:52:45;;;;;;;8.03;3.90;;;5.60;99.90;;;;;;5015971;28;20243;-84
2023/02/13 09:55:17;;;;;;;17.00;6.07;;;5.60;99.90;;;;;;5014518;28;20271;-85
2023/02/13 09:58:02;;;;;;;8.10;4.57;;;5.60;99.90;;;;;;5014890;28;20230;-85
2023/02/13 10:00:31;;;;;;;14.67;5.23;;;5.70;99.90;;;;;;5015064;28;20195;-85
2023/02/13 10:02:57;;;;;;;9.43;4.93;;;5.80;99.90;;;;;;5014726;28;20208;-86
2023/02/13 10:05:51;;;;;;;12.47;6.00;;;5.70;99.90;;;;;;5014538;28;20203;-84
2023/02/13 10:08:44;;;;;;;9.67;5.63;;;5.70;99.90;;;;;;5032167;28;20208;-85
2023/02/13 10:11:41;;;;;;;22.03;5.33;;;5.80;99.90;;;;;;5032683;28;20251;-84
2023/02/13 10:14:42;;;;;;;5.33;3.73;;;5.80;99.90;;;;;;5014687;28;20188;-84
2023/02/13 10:17:20;;;;;;;7.73;4.27;;;5.80;99.90;;;;;;4936675;29;20191;-84
2023/02/13 10:19:48;;;;;;;8.90;4.37;;;5.80;99.90;;;;;;5029748;28;20629;-84
2023/02/13 10:22:22;;;;;;;7.03;3.10;;;5.80;99.90;;;;;;5040756;28;20266;-86
2023/02/13 10:25:26;;;;;;;6.17;3.30;;;5.80;99.90;;;;;;5031750;28;20219;-84
2023/02/13 10:27:56;;;;;;;14.83;4.23;;;5.80;99.90;;;;;;5024132;28;20210;-84
2023/02/13 10:30:29;;;;;;;17.97;5.17;;;5.90;99.90;;;;;;5035214;28;20266;-84
2023/02/13 10:33:20;;;;;;;13.77;4.37;;;5.90;99.90;;;;;;5015993;28;20651;-84
2023/02/13 10:36:09;;;;;;;13.00;4.47;;;5.80;99.90;;;;;;5036557;28;20269;-84
2023/02/13 10:39:03;;;;;;;6.83;3.03;;;5.80;99.90;;;;;;5036336;28;20203;-83
2023/02/13 10:41:50;;;;;;;8.70;3.83;;;5.90;99.90;;;;;;5041102;28;20180;-84
2023/02/13 10:45:00;;;;;;;5.33;3.33;;;5.90;99.90;;;;;;5027825;28;20180;-82
2023/02/13 10:47:57;;;;;;;8.13;3.77;;;5.90;99.90;;;;;;5045137;28;20225;-85
2023/02/13 10:50:29;;;;;;;6.77;3.47;;;5.90;99.90;;;;;;5043690;28;20168;-83
2023/02/13 10:53:29;;;;;;;6.67;3.37;;;6.00;99.90;;;;;;5031831;28;20637;-85
2023/02/13 10:55:59;;;;;;;10.27;4.37;;;5.90;99.90;;;;;;5046762;28;20180;-85
2023/02/13 10:58:49;;;;;;;5.70;2.67;;;5.90;99.90;;;;;;5030530;28;20180;-84
2023/02/13 11:01:20;;;;;;;3.77;2.63;;;5.90;99.90;;;;;;5021221;28;20180;-85
2023/02/13 11:03:58;;;;;;;2.57;1.97;;;6.00;99.90;;;;;;5039178;28;20224;-84
2023/02/13 11:06:25;;;;;;;7.07;4.00;;;6.00;99.90;;;;;;5035579;28;20191;-84
2023/02/13 11:08:50;;;;;;;7.37;3.80;;;6.00;99.90;;;;;;5019006;28;20203;-84
2023/02/13 11:11:36;;;;;;;8.43;4.60;;;6.00;99.90;;;;;;5009541;28;20538;-84
2023/02/13 11:24:18;;;;;;;10.93;4.53;;;6.20;99.90;;;;;;5264756;23;20305;-83
2023/02/13 11:26:44;;;;;;;7.73;4.07;;;6.30;99.90;;;;;;5024802;28;20312;-82
2023/02/13 11:29:31;;;;;;;5.63;3.20;;;6.20;99.90;;;;;;5007484;28;20208;-84
2023/02/13 11:32:04;;;;;;;6.40;3.63;;;6.20;99.90;;;;;;5021678;28;20566;-83
2023/02/13 11:34:31;;;;;;;5.27;3.33;;;6.20;99.90;;;;;;5007370;28;20745;-83
2023/02/13 11:37:14;;;;;;;6.80;3.43;;;6.20;99.90;;;;;;5017578;28;20189;-83
2023/02/13 11:39:41;;;;;;;7.53;3.47;;;6.10;99.90;;;;;;5006830;28;20503;-82
2023/02/13 11:42:34;;;;;;;6.53;3.47;;;6.10;99.90;;;;;;5018932;28;20203;-84
2023/02/13 11:45:21;;;;;;;6.63;3.67;;;6.00;99.90;;;;;;4999986;28;20330;-85
2023/02/13 11:47:48;;;;;;;10.07;3.93;;;6.00;99.90;;;;;;5015718;28;20165;-83
2023/02/13 11:50:39;;;;;;;5.67;3.50;;;5.90;99.90;;;;;;5015490;28;20181;-84
2023/02/13 11:53:07;;;;;;;5.23;3.33;;;6.00;99.90;;;;;;5017715;28;20181;-83
2023/02/13 11:55:37;;;;;;;3.97;2.27;;;6.10;99.90;;;;;;5020695;28;20177;-83
2023/02/13 11:58:14;;;;;;;9.17;3.30;;;6.20;99.90;;;;;;5017089;28;20211;-83
2023/02/13 12:00:41;;;;;;;4.57;2.83;;;6.20;99.90;;;;;;5001888;28;20181;-82
2023/02/13 12:03:30;;;;;;;4.63;2.33;;;6.20;99.90;;;;;;5015655;28;20200;-84
2023/02/13 12:06:15;;;;;;;5.10;2.60;;;6.20;99.90;;;;;;5005469;28;20173;-83
2023/02/13 12:08:45;;;;;;;6.03;2.43;;;6.10;99.90;;;;;;5014205;28;20196;-83
2023/02/13 12:11:19;;;;;;;4.40;2.33;;;6.10;99.90;;;;;;5013395;28;20188;-83
2023/02/13 12:13:46;;;;;;;8.70;2.40;;;6.00;99.90;;;;;;5004767;28;20300;-84
2023/02/13 12:16:40;;;;;;;5.70;2.60;;;5.90;99.90;;;;;;5018127;28;20319;-84
2023/02/13 12:19:13;;;;;;;2.80;1.80;;;5.90;99.90;;;;;;5015840;28;20782;-83
2023/02/13 12:22:13;;;;;;;5.50;2.60;;;5.80;99.90;;;;;;5003840;28;20177;-83
2023/02/13 12:25:03;;;;;;;2.60;1.77;;;5.80;99.90;;;;;;4966795;28;20252;-83
2023/02/13 12:27:50;;;;;;;2.60;1.87;;;5.80;99.90;;;;;;5025758;28;20191;-84
2023/02/13 12:30:18;;;;;;;5.77;2.47;;;5.80;99.90;;;;;;5026286;28;20260;-83
2023/02/13 12:33:02;;;;;;;1.77;1.10;;;5.80;99.90;;;;;;5006488;28;20188;-84
2023/02/13 12:35:47;;;;;;;3.43;1.97;;;5.80;99.90;;;;;;5000019;28;20213;-83
2023/02/13 12:38:50;;;;;;;3.30;2.07;;;5.80;99.90;;;;;;5026367;28;20536;-87
2023/02/13 12:41:24;;;;;;;3.23;2.07;;;5.80;99.90;;;;;;5025009;28;20577;-85
2023/02/13 12:44:02;;;;;;;4.83;2.73;;;5.80;99.90;;;;;;5018811;28;20247;-84
2023/02/13 12:46:46;;;;;;;2.17;1.97;;;5.70;99.90;;;;;;5004847;28;20199;-86
2023/02/13 12:49:25;;;;;;;6.00;1.97;;;5.80;99.90;;;;;;5004620;28;20503;-84
2023/02/13 12:52:27;;;;;;;2.87;1.70;;;5.70;99.90;;;;;;5002780;28;20185;-83
2023/02/13 12:55:17;;;;;;;3.60;2.07;;;5.80;99.90;;;;;;5021608;28;20177;-84
2023/02/13 12:58:01;;;;;;;3.07;1.77;;;5.80;99.90;;;;;;5006957;28;20696;-83
2023/02/13 13:01:04;;;;;;;3.07;1.83;;;5.80;99.90;;;;;;5005196;28;20591;-85
2023/02/13 13:04:07;;;;;;;1.53;1.37;;;5.90;99.90;;;;;;5012496;28;20584;-82
2023/02/13 13:06:42;;;;;;;1.73;1.13;;;6.00;99.90;;;;;;4979663;28;20348;-84
2023/02/13 13:09:10;;;;;;;4.93;1.70;;;6.00;99.90;;;;;;5003783;28;20176;-84
2023/02/13 13:11:48;;;;;;;3.37;1.33;;;6.00;99.90;;;;;;5004840;28;20656;-83
2023/02/13 13:14:48;;;;;;;4.77;1.90;;;5.90;99.90;;;;;;5003462;28;20203;-82
2023/02/13 13:17:22;;;;;;;2.43;2.00;;;5.80;99.90;;;;;;5020491;28;20181;-83
2023/02/13 13:19:55;;;;;;;3.00;2.37;;;5.70;99.90;;;;;;5019456;28;20176;-82
2023/02/13 13:22:38;;;;;;;1.83;1.67;;;5.70;99.90;;;;;;5020802;28;20197;-81
2023/02/13 13:25:31;;;;;;;3.83;1.70;;;5.70;99.90;;;;;;5020578;28;20231;-82
2023/02/13 13:28:10;;;;;;;3.60;1.97;;;5.60;99.90;;;;;;5022501;28;20651;-83
2023/02/13 13:30:38;;;;;;;3.97;2.47;;;5.60;99.90;;;;;;5016332;28;21972;-83
2023/02/13 13:33:21;;;;;;;4.80;1.97;;;5.60;99.90;;;;;;4995083;28;20271;-82
2023/02/13 13:36:22;;;;;;;2.33;2.13;;;5.60;99.90;;;;;;5016824;28;20580;-82
2023/02/13 13:38:54;;;;;;;5.00;2.17;;;5.50;99.90;;;;;;4924721;29;20183;-82
2023/02/13 13:41:29;;;;;;;2.67;2.10;;;5.50;99.90;;;;;;5003507;28;20189;-81
2023/02/13 13:44:11;;;;;;;2.20;1.43;;;5.50;99.90;;;;;;5002239;28;20519;-82
2023/02/13 13:46:37;;;;;;;2.83;1.43;;;;;;;;;;5022789;28;20618;-85
2023/02/13 13:49:21;;;;;;;4.80;2.17;;;5.60;99.90;;;;;;5004793;28;20185;-82
2023/02/13 13:51:46;;;;;;;2.40;1.30;;;5.60;99.90;;;;;;5018512;28;20173;-83
2023/02/13 13:54:12;;;;;;;2.63;2.07;;;5.60;99.90;;;;;;5002300;28;20181;-82
2023/02/13 13:57:01;;;;;;;3.57;2.30;;;5.60;99.90;;;;;;5005569;28;20657;-82
2023/02/13 13:59:32;;;;;;;1.93;1.50;;;5.50;99.90;;;;;;4999242;28;20761;-82
2023/02/13 14:02:16;;;;;;;6.60;2.53;;;5.50;99.90;;;;;;5021585;28;20296;-83
2023/02/13 14:05:14;;;;;;;3.57;1.93;;;5.40;99.90;;;;;;5000981;28;20189;-83
2023/02/13 14:07:41;;;;;;;4.03;1.77;;;5.40;99.90;;;;;;4977031;28;20197;-83
2023/02/13 14:10:25;;;;;;;4.37;2.20;;;5.40;99.90;;;;;;5002313;28;20590;-85
2023/02/13 14:12:57;;;;;;;2.10;1.70;;;5.40;99.90;;;;;;5003820;28;20664;-84
2023/02/13 14:15:43;;;;;;;6.47;3.87;;;5.40;99.90;;;;;;5003822;28;20196;-84
2023/02/13 14:18:11;;;;;;;9.57;5.50;;;5.40;99.90;;;;;;5001858;28;20188;-83
2023/02/13 14:20:59;;;;;;;3.53;2.23;;;5.40;99.90;;;;;;5019192;28;20180;-84
2023/02/13 14:23:48;;;;;;;7.83;3.77;;;5.40;99.90;;;;;;5018271;28;20209;-84
2023/02/13 14:26:17;;;;;;;3.07;2.03;;;5.50;99.90;;;;;;5000802;28;20272;-83
2023/02/13 14:28:48;;;;;;;5.97;2.40;;;5.40;99.90;;;;;;5007723;28;20212;-84